sensor_id;sensor_type;location;lat;lon;timestamp;temperature;humidity
45729;DHT22;31439;53.512;10.206;2023-04-01T00:00:54;11.30;99.90
45729;DHT22;31439;53.512;10.206;2023-04-01T00:03:21;11.30;99.90
45729;DHT22;31439;53.512;10.206;2023-04-01T00:05:47;11.30;99.90
45729;DHT22;31439;53.512;10.206;2023-04-01T00:08:13;11.30;99.90
45729;DHT22;31439;53.512;10.206;2023-04-01T00:10:39;11.30;99.90
45729;DHT22;31439;53.512;10.206;2023-04-01T00:13:05;11.30;99.90
45729;DHT22;31439;53.512;10.206;2023-04-01T00:15:31;11.20;99.90
45729;DHT22;31439;53.512;10.206;2023-04-01T00:17:57;11.20;99.90
45729;DHT22;31439;53.512;10.206;2023-04-01T00:20:22;11.20;99.90
45729;DHT22;31439;53.512;10.206;2023-04-01T00:22:48;11.10;99.90
45729;DHT22;31439;53.512;10.206;2023-04-01T00:25:14;11.20;99.90
45729;DHT22;31439;53.512;10.206;2023-04-01T00:27:40;11.20;99.90
45729;DHT22;31439;53.512;10.206;2023-04-01T00:30:07;11.20;99.90
45729;DHT22;31439;53.512;10.206;2023-04-01T00:32:33;11.20;99.90
45729;DHT22;31439;53.512;10.206;2023-04-01T00:35:00;11.20;99.90
45729;DHT22;31439;53.512;10.206;2023-04-01T00:37:27;11.10;99.90
45729;DHT22;31439;53.512;10.206;2023-04-01T00:39:53;11.10;99.90
45729;DHT22;31439;53.512;10.206;2023-04-01T00:42:19;11.10;99.90
45729;DHT22;31439;53.512;10.206;2023-04-01T00:44:54;11.10;99.90
45729;DHT22;31439;53.512;10.206;2023-04-01T00:47:22;11.10;99.90
45729;DHT22;31439;53.512;10.206;2023-04-01T00:49:51;11.10;99.90
45729;DHT22;31439;53.512;10.206;2023-04-01T00:52:21;11.10;99.90
45729;DHT22;31439;53.512;10.206;2023-04-01T00:54:50;11.10;99.90
45729;DHT22;31439;53.512;10.206;2023-04-01T00:57:29;11.10;99.90
45729;DHT22;31439;53.512;10.206;2023-04-01T00:59:56;11.10;99.90
45729;DHT22;31439;53.512;10.206;2023-04-01T01:02:24;11.00;99.90
45729;DHT22;31439;53.512;10.206;2023-04-01T01:04:51;11.00;99.90
45729;DHT22;31439;53.512;10.206;2023-04-01T01:15:25;11.00;99.90
45729;DHT22;31439;53.512;10.206;2023-04-01T01:21:14;10.90;99.90
45729;DHT22;31439;53.512;10.206;2023-04-01T01:26:57;10.90;99.90
45729;DHT22;31439;53.512;10.206;2023-04-01T01:37:30;11.00;99.90
45729;DHT22;31439;53.512;10.206;2023-04-01T01:40:01;11.00;99.90
45729;DHT22;31439;53.512;10.206;2023-04-01T01:42:30;10.90;99.90
45729;DHT22;31439;53.512;10.206;2023-04-01T01:44:57;10.90;99.90
45729;DHT22;31439;53.512;10.206;2023-04-01T01:47:25;10.90;99.90
45729;DHT22;31439;53.512;10.206;2023-04-01T01:49:51;10.90;99.90
45729;DHT22;31439;53.512;10.206;2023-04-01T01:52:18;10.90;99.90
45729;DHT22;31439;53.512;10.206;2023-04-01T01:54:49;11.00;99.90
45729;DHT22;31439;53.512;10.206;2023-04-01T01:57:15;11.00;99.90
45729;DHT22;31439;53.512;10.206;2023-04-01T01:59:43;10.90;99.90
45729;DHT22;31439;53.512;10.206;2023-04-01T02:02:10;10.90;99.90
45729;DHT22;31439;53.512;10.206;2023-04-01T02:04:39;10.90;99.90
45729;DHT22;31439;53.512;10.206;2023-04-01T02:07:13;11.00;99.90
45729;DHT22;31439;53.512;10.206;2023-04-01T02:09:40;10.90;99.90
45729;DHT22;31439;53.512;10.206;2023-04-01T02:12:08;11.00;99.90
45729;DHT22;31439;53.512;10.206;2023-04-01T02:17:13;10.90;99.90
45729;DHT22;31439;53.512;10.206;2023-04-01T02:19:48;11.00;99.90
45729;DHT22;31439;53.512;10.206;2023-04-01T02:22:20;10.90;99.90
45729;DHT22;31439;53.512;10.206;2023-04-01T02:24:48;10.90;99.90
45729;DHT22;31439;53.512;10.206;2023-04-01T02:27:14;10.90;99.90
45729;DHT22;31439;53.512;10.206;2023-04-01T02:29:40;10.90;99.90
45729;DHT22;31439;53.512;10.206;2023-04-01T02:32:06;10.90;99.90
45729;DHT22;31439;53.512;10.206;2023-04-01T02:34:33;10.80;99.90
45729;DHT22;31439;53.512;10.206;2023-04-01T02:36:59;10.80;99.90
45729;DHT22;31439;53.512;10.206;2023-04-01T02:39:25;10.80;99.90
45729;DHT22;31439;53.512;10.206;2023-04-01T02:41:53;10.80;99.90
45729;DHT22;31439;53.512;10.206;2023-04-01T02:44:19;10.80;99.90
45729;DHT22;31439;53.512;10.206;2023-04-01T02:46:45;10.90;99.90
45729;DHT22;31439;53.512;10.206;2023-04-01T02:49:10;10.80;99.90
45729;DHT22;31439;53.512;10.206;2023-04-01T02:51:36;10.80;99.90
45729;DHT22;31439;53.512;10.206;2023-04-01T02:54:02;10.80;99.90
45729;DHT22;31439;53.512;10.206;2023-04-01T02:56:28;10.80;99.90
45729;DHT22;31439;53.512;10.206;2023-04-01T02:58:54;10.80;99.90
45729;DHT22;31439;53.512;10.206;2023-04-01T03:01:20;10.80;99.90
45729;DHT22;31439;53.512;10.206;2023-04-01T03:03:45;10.70;99.90
45729;DHT22;31439;53.512;10.206;2023-04-01T03:06:13;10.80;99.90
45729;DHT22;31439;53.512;10.206;2023-04-01T03:08:39;10.80;99.90
45729;DHT22;31439;53.512;10.206;2023-04-01T03:11:05;10.70;99.90
45729;DHT22;31439;53.512;10.206;2023-04-01T03:13:31;10.70;99.90
45729;DHT22;31439;53.512;10.206;2023-04-01T03:15:57;10.70;99.90
45729;DHT22;31439;53.512;10.206;2023-04-01T03:18:23;10.80;99.90
45729;DHT22;31439;53.512;10.206;2023-04-01T03:20:49;10.70;99.90
45729;DHT22;31439;53.512;10.206;2023-04-01T03:23:15;10.70;99.90
45729;DHT22;31439;53.512;10.206;2023-04-01T03:25:42;10.70;99.90
45729;DHT22;31439;53.512;10.206;2023-04-01T03:28:08;10.60;99.90
45729;DHT22;31439;53.512;10.206;2023-04-01T03:30:34;10.70;99.90
45729;DHT22;31439;53.512;10.206;2023-04-01T03:33:00;10.70;99.90
45729;DHT22;31439;53.512;10.206;2023-04-01T03:35:27;10.80;99.90
45729;DHT22;31439;53.512;10.206;2023-04-01T03:37:53;10.70;99.90
45729;DHT22;31439;53.512;10.206;2023-04-01T03:40:20;10.70;99.90
45729;DHT22;31439;53.512;10.206;2023-04-01T03:42:46;10.70;99.90
45729;DHT22;31439;53.512;10.206;2023-04-01T03:45:12;10.80;99.90
45729;DHT22;31439;53.512;10.206;2023-04-01T03:47:38;10.70;99.90
45729;DHT22;31439;53.512;10.206;2023-04-01T03:50:07;10.70;99.90
45729;DHT22;31439;53.512;10.206;2023-04-01T03:52:34;10.70;99.90
45729;DHT22;31439;53.512;10.206;2023-04-01T03:55:01;10.70;99.90
45729;DHT22;31439;53.512;10.206;2023-04-01T03:57:27;10.70;99.90
45729;DHT22;31439;53.512;10.206;2023-04-01T03:59:52;10.70;99.90
45729;DHT22;31439;53.512;10.206;2023-04-01T04:02:19;10.70;99.90
45729;DHT22;31439;53.512;10.206;2023-04-01T04:04:45;10.70;99.90
45729;DHT22;31439;53.512;10.206;2023-04-01T04:07:12;10.70;99.90
45729;DHT22;31439;53.512;10.206;2023-04-01T04:09:37;10.70;99.90
45729;DHT22;31439;53.512;10.206;2023-04-01T04:12:03;10.60;99.90
45729;DHT22;31439;53.512;10.206;2023-04-01T04:14:31;10.70;99.90
45729;DHT22;31439;53.512;10.206;2023-04-01T04:16:57;10.60;99.90
45729;DHT22;31439;53.512;10.206;2023-04-01T04:19:22;10.60;99.90
45729;DHT22;31439;53.512;10.206;2023-04-01T04:21:48;10.60;99.90
45729;DHT22;31439;53.512;10.206;2023-04-01T04:24:14;10.70;99.90
45729;DHT22;31439;53.512;10.206;2023-04-01T04:26:39;10.60;99.90
45729;DHT22;31439;53.512;10.206;2023-04-01T04:29:05;10.60;99.90
45729;DHT22;31439;53.512;10.206;2023-04-01T04:31:31;10.60;99.90
45729;DHT22;31439;53.512;10.206;2023-04-01T04:33:59;10.60;99.90
45729;DHT22;31439;53.512;10.206;2023-04-01T04:36:25;10.60;99.90
45729;DHT22;31439;53.512;10.206;2023-04-01T04:38:51;10.60;99.90
45729;DHT22;31439;53.512;10.206;2023-04-01T04:41:17;10.60;99.90
45729;DHT22;31439;53.512;10.206;2023-04-01T04:43:53;10.60;99.90
45729;DHT22;31439;53.512;10.206;2023-04-01T04:46:19;10.60;99.90
45729;DHT22;31439;53.512;10.206;2023-04-01T04:48:45;10.60;99.90
45729;DHT22;31439;53.512;10.206;2023-04-01T04:51:18;10.60;99.90
45729;DHT22;31439;53.512;10.206;2023-04-01T04:53:44;10.70;99.90
45729;DHT22;31439;53.512;10.206;2023-04-01T04:56:11;10.60;99.90
45729;DHT22;31439;53.512;10.206;2023-04-01T04:58:38;10.60;99.90
45729;DHT22;31439;53.512;10.206;2023-04-01T05:01:13;10.60;99.90
45729;DHT22;31439;53.512;10.206;2023-04-01T05:03:39;10.70;99.90
45729;DHT22;31439;53.512;10.206;2023-04-01T05:06:06;10.60;99.90
45729;DHT22;31439;53.512;10.206;2023-04-01T05:08:32;10.60;99.90
45729;DHT22;31439;53.512;10.206;2023-04-01T05:10:59;10.60;99.90
45729;DHT22;31439;53.512;10.206;2023-04-01T05:13:25;10.60;99.90
45729;DHT22;31439;53.512;10.206;2023-04-01T05:15:51;10.60;99.90
45729;DHT22;31439;53.512;10.206;2023-04-01T05:18:17;10.60;99.90
45729;DHT22;31439;53.512;10.206;2023-04-01T05:20:51;10.50;99.90
45729;DHT22;31439;53.512;10.206;2023-04-01T05:23:17;10.60;99.90
45729;DHT22;31439;53.512;10.206;2023-04-01T05:25:43;10.60;99.90
45729;DHT22;31439;53.512;10.206;2023-04-01T05:28:10;10.60;99.90
45729;DHT22;31439;53.512;10.206;2023-04-01T05:30:35;10.70;99.90
45729;DHT22;31439;53.512;10.206;2023-04-01T05:33:02;10.70;99.90
45729;DHT22;31439;53.512;10.206;2023-04-01T05:35:28;10.60;99.90
45729;DHT22;31439;53.512;10.206;2023-04-01T05:37:53;10.60;99.90
45729;DHT22;31439;53.512;10.206;2023-04-01T05:40:19;10.60;99.90
45729;DHT22;31439;53.512;10.206;2023-04-01T05:42:45;10.60;99.90
45729;DHT22;31439;53.512;10.206;2023-04-01T05:45:11;10.60;99.90
45729;DHT22;31439;53.512;10.206;2023-04-01T05:47:40;10.40;99.90
45729;DHT22;31439;53.512;10.206;2023-04-01T05:50:18;10.30;99.90
45729;DHT22;31439;53.512;10.206;2023-04-01T05:52:44;10.20;99.90
45729;DHT22;31439;53.512;10.206;2023-04-01T05:55:10;10.00;99.90
45729;DHT22;31439;53.512;10.206;2023-04-01T05:57:36;9.90;99.90
45729;DHT22;31439;53.512;10.206;2023-04-01T06:00:03;9.80;99.90
45729;DHT22;31439;53.512;10.206;2023-04-01T06:02:29;9.80;99.90
45729;DHT22;31439;53.512;10.206;2023-04-01T06:05:14;9.70;99.90
45729;DHT22;31439;53.512;10.206;2023-04-01T06:07:41;9.70;99.90
45729;DHT22;31439;53.512;10.206;2023-04-01T06:10:14;9.60;99.90
45729;DHT22;31439;53.512;10.206;2023-04-01T06:15:28;9.40;99.90
45729;DHT22;31439;53.512;10.206;2023-04-01T06:19:03;9.40;99.90
45729;DHT22;31439;53.512;10.206;2023-04-01T06:24:30;9.30;99.90
45729;DHT22;31439;53.512;10.206;2023-04-01T06:29:58;9.10;99.90
45729;DHT22;31439;53.512;10.206;2023-04-01T06:45:58;8.80;99.90
45729;DHT22;31439;53.512;10.206;2023-04-01T06:51:35;8.60;99.90
45729;DHT22;31439;53.512;10.206;2023-04-01T06:54:34;8.70;99.90
45729;DHT22;31439;53.512;10.206;2023-04-01T06:59:57;8.70;99.90
45729;DHT22;31439;53.512;10.206;2023-04-01T07:02:43;8.70;99.90
45729;DHT22;31439;53.512;10.206;2023-04-01T07:05:11;8.70;99.90
45729;DHT22;31439;53.512;10.206;2023-04-01T07:07:42;8.60;99.90
45729;DHT22;31439;53.512;10.206;2023-04-01T07:13:16;8.60;99.90
45729;DHT22;31439;53.512;10.206;2023-04-01T07:15:50;8.50;99.90
45729;DHT22;31439;53.512;10.206;2023-04-01T07:18:30;8.40;99.90
45729;DHT22;31439;53.512;10.206;2023-04-01T07:20:58;8.30;99.90
45729;DHT22;31439;53.512;10.206;2023-04-01T07:23:29;8.20;99.90
45729;DHT22;31439;53.512;10.206;2023-04-01T07:26:00;8.30;99.90
45729;DHT22;31439;53.512;10.206;2023-04-01T07:28:33;8.30;99.90
45729;DHT22;31439;53.512;10.206;2023-04-01T07:31:05;8.30;99.90
45729;DHT22;31439;53.512;10.206;2023-04-01T07:33:43;8.30;99.90
45729;DHT22;31439;53.512;10.206;2023-04-01T07:36:24;8.30;99.90
45729;DHT22;31439;53.512;10.206;2023-04-01T07:41:52;8.30;99.90
45729;DHT22;31439;53.512;10.206;2023-04-01T07:50:37;8.30;99.90
45729;DHT22;31439;53.512;10.206;2023-04-01T07:56:01;8.20;99.90
45729;DHT22;31439;53.512;10.206;2023-04-01T08:04:38;9.90;99.90
45729;DHT22;31439;53.512;10.206;2023-04-01T08:23:02;8.30;99.90
45729;DHT22;31439;53.512;10.206;2023-04-01T08:25:30;8.30;99.90
45729;DHT22;31439;53.512;10.206;2023-04-01T08:30:56;8.20;99.90
45729;DHT22;31439;53.512;10.206;2023-04-01T08:33:26;8.10;99.90
45729;DHT22;31439;53.512;10.206;2023-04-01T08:36:22;8.10;99.90
45729;DHT22;31439;53.512;10.206;2023-04-01T08:44:48;8.00;99.90
45729;DHT22;31439;53.512;10.206;2023-04-01T08:47:49;8.10;99.90
45729;DHT22;31439;53.512;10.206;2023-04-01T08:50:33;8.10;99.90
45729;DHT22;31439;53.512;10.206;2023-04-01T08:58:51;8.20;99.90
45729;DHT22;31439;53.512;10.206;2023-04-01T09:12:47;8.10;99.90
45729;DHT22;31439;53.512;10.206;2023-04-01T09:18:22;8.00;99.90
45729;DHT22;31439;53.512;10.206;2023-04-01T09:32:26;8.30;99.90
45729;DHT22;31439;53.512;10.206;2023-04-01T09:35:42;8.30;99.90
45729;DHT22;31439;53.512;10.206;2023-04-01T09:49:40;8.20;99.90
45729;DHT22;31439;53.512;10.206;2023-04-01T09:57:38;8.20;99.90
45729;DHT22;31439;53.512;10.206;2023-04-01T10:23:14;8.40;99.90
45729;DHT22;31439;53.512;10.206;2023-04-01T10:52:01;8.50;99.90
45729;DHT22;31439;53.512;10.206;2023-04-01T11:08:47;8.40;99.90
45729;DHT22;31439;53.512;10.206;2023-04-01T11:14:03;8.40;99.90
45729;DHT22;31439;53.512;10.206;2023-04-01T11:30:21;8.50;99.90
45729;DHT22;31439;53.512;10.206;2023-04-01T11:33:22;8.40;99.90
45729;DHT22;31439;53.512;10.206;2023-04-01T11:39:19;8.90;99.90
45729;DHT22;31439;53.512;10.206;2023-04-01T11:42:19;8.70;99.90
45729;DHT22;31439;53.512;10.206;2023-04-01T11:50:52;8.30;99.90
45729;DHT22;31439;53.512;10.206;2023-04-01T11:58:57;8.10;99.90
45729;DHT22;31439;53.512;10.206;2023-04-01T12:10:17;7.90;99.90
45729;DHT22;31439;53.512;10.206;2023-04-01T12:30:42;7.60;99.90
45729;DHT22;31439;53.512;10.206;2023-04-01T13:21:24;7.50;99.90
45729;DHT22;31439;53.512;10.206;2023-04-01T13:27:17;7.50;99.90
45729;DHT22;31439;53.512;10.206;2023-04-01T13:32:43;7.50;99.90
45729;DHT22;31439;53.512;10.206;2023-04-01T13:38:27;7.40;99.90
45729;DHT22;31439;53.512;10.206;2023-04-01T13:43:43;7.40;99.90
45729;DHT22;31439;53.512;10.206;2023-04-01T14:09:08;7.30;99.90
45729;DHT22;31439;53.512;10.206;2023-04-01T14:18:25;7.50;99.90
45729;DHT22;31439;53.512;10.206;2023-04-01T14:24:20;7.30;99.90
45729;DHT22;31439;53.512;10.206;2023-04-01T14:39:15;7.10;99.90
45729;DHT22;31439;53.512;10.206;2023-04-01T14:55:19;7.50;99.90
45729;DHT22;31439;53.512;10.206;2023-04-01T16:16:19;6.20;99.90
45729;DHT22;31439;53.512;10.206;2023-04-01T16:53:08;5.90;99.90
45729;DHT22;31439;53.512;10.206;2023-04-01T17:02:10;5.90;99.90
45729;DHT22;31439;53.512;10.206;2023-04-01T17:05:12;5.80;99.90
45729;DHT22;31439;53.512;10.206;2023-04-01T17:11:19;5.70;99.90
45729;DHT22;31439;53.512;10.206;2023-04-01T18:22:19;5.50;99.90
45729;DHT22;31439;53.512;10.206;2023-04-01T18:27:43;5.50;99.90
45729;DHT22;31439;53.512;10.206;2023-04-01T18:30:29;5.30;99.90
45729;DHT22;31439;53.512;10.206;2023-04-01T18:38:54;5.20;99.90
45729;DHT22;31439;53.512;10.206;2023-04-01T18:49:06;5.00;99.90
45729;DHT22;31439;53.512;10.206;2023-04-01T18:51:38;5.10;99.90
45729;DHT22;31439;53.512;10.206;2023-04-01T18:54:29;5.00;99.90
45729;DHT22;31439;53.512;10.206;2023-04-01T18:57:15;5.00;99.90
45729;DHT22;31439;53.512;10.206;2023-04-01T18:59:51;5.10;99.90
45729;DHT22;31439;53.512;10.206;2023-04-01T19:02:36;5.00;99.90
45729;DHT22;31439;53.512;10.206;2023-04-01T19:08:25;4.90;99.90
45729;DHT22;31439;53.512;10.206;2023-04-01T19:17:03;4.80;99.90
45729;DHT22;31439;53.512;10.206;2023-04-01T19:27:48;4.70;99.90
45729;DHT22;31439;53.512;10.206;2023-04-01T19:35:32;4.80;99.90
45729;DHT22;31439;53.512;10.206;2023-04-01T19:43:44;4.70;99.90
45729;DHT22;31439;53.512;10.206;2023-04-01T19:52:38;4.50;99.90
45729;DHT22;31439;53.512;10.206;2023-04-01T19:55:39;4.40;99.90
45729;DHT22;31439;53.512;10.206;2023-04-01T20:00:56;4.30;99.90
45729;DHT22;31439;53.512;10.206;2023-04-01T20:03:50;4.30;99.90
45729;DHT22;31439;53.512;10.206;2023-04-01T20:06:32;4.40;99.90
45729;DHT22;31439;53.512;10.206;2023-04-01T20:19:36;4.20;99.90
45729;DHT22;31439;53.512;10.206;2023-04-01T20:22:17;4.80;99.90
45729;DHT22;31439;53.512;10.206;2023-04-01T20:24:51;4.40;99.90
45729;DHT22;31439;53.512;10.206;2023-04-01T20:27:25;4.30;99.90
45729;DHT22;31439;53.512;10.206;2023-04-01T20:38:26;4.10;99.90
45729;DHT22;31439;53.512;10.206;2023-04-01T20:52:42;3.90;99.90
45729;DHT22;31439;53.512;10.206;2023-04-01T21:00:52;4.00;99.90
45729;DHT22;31439;53.512;10.206;2023-04-01T21:03:57;4.00;99.90
45729;DHT22;31439;53.512;10.206;2023-04-01T21:14:55;3.80;99.90
45729;DHT22;31439;53.512;10.206;2023-04-01T21:31:23;3.70;99.90
45729;DHT22;31439;53.512;10.206;2023-04-01T21:34:28;3.80;99.90
45729;DHT22;31439;53.512;10.206;2023-04-01T21:50:54;3.60;99.90
45729;DHT22;31439;53.512;10.206;2023-04-01T21:59:09;3.40;99.90
45729;DHT22;31439;53.512;10.206;2023-04-01T22:07:21;3.50;99.90
45729;DHT22;31439;53.512;10.206;2023-04-01T22:12:47;3.40;99.90
45729;DHT22;31439;53.512;10.206;2023-04-01T22:18:07;3.30;99.90
45729;DHT22;31439;53.512;10.206;2023-04-01T22:20:54;3.40;99.90
45729;DHT22;31439;53.512;10.206;2023-04-01T22:23:25;3.40;99.90
45729;DHT22;31439;53.512;10.206;2023-04-01T22:26:25;3.40;99.90
45729;DHT22;31439;53.512;10.206;2023-04-01T22:28:58;3.40;99.90
45729;DHT22;31439;53.512;10.206;2023-04-01T22:31:34;3.40;99.90
45729;DHT22;31439;53.512;10.206;2023-04-01T22:34:14;3.30;99.90
45729;DHT22;31439;53.512;10.206;2023-04-01T22:37:18;3.30;99.90
45729;DHT22;31439;53.512;10.206;2023-04-01T22:48:05;3.20;99.90
45729;DHT22;31439;53.512;10.206;2023-04-01T22:55:34;3.10;99.90
45729;DHT22;31439;53.512;10.206;2023-04-01T22:58:04;3.10;99.90
45729;DHT22;31439;53.512;10.206;2023-04-01T23:00:39;3.10;99.90
45729;DHT22;31439;53.512;10.206;2023-04-01T23:05:53;3.00;99.90
45729;DHT22;31439;53.512;10.206;2023-04-01T23:13:52;3.00;99.90
45729;DHT22;31439;53.512;10.206;2023-04-01T23:16:40;3.00;99.90
45729;DHT22;31439;53.512;10.206;2023-04-01T23:24:53;3.10;99.90
45729;DHT22;31439;53.512;10.206;2023-04-01T23:27:30;3.10;99.90
45729;DHT22;31439;53.512;10.206;2023-04-01T23:30:01;3.00;99.90
45729;DHT22;31439;53.512;10.206;2023-04-01T23:32:27;2.90;99.90
45729;DHT22;31439;53.512;10.206;2023-04-01T23:34:58;2.90;99.90
45729;DHT22;31439;53.512;10.206;2023-04-01T23:37:26;2.90;99.90
45729;DHT22;31439;53.512;10.206;2023-04-01T23:39:54;3.00;99.90
45729;DHT22;31439;53.512;10.206;2023-04-01T23:42:29;2.90;99.90
45729;DHT22;31439;53.512;10.206;2023-04-01T23:44:58;2.90;99.90
45729;DHT22;31439;53.512;10.206;2023-04-01T23:47:36;2.80;99.90
45729;DHT22;31439;53.512;10.206;2023-04-01T23:52:47;2.80;99.90
45729;DHT22;31439;53.512;10.206;2023-04-01T23:55:29;2.90;99.90
